createdAt,value
2024-03-17T00:00:01.607Z,0.78
2024-03-17T00:01:01.626Z,0.79
2024-03-17T00:02:01.720Z,0.78
2024-03-17T00:03:03.471Z,0.79
2024-03-17T00:04:01.950Z,0.79
2024-03-17T00:05:02.021Z,0.77
2024-03-17T00:06:02.113Z,0.72
2024-03-17T00:07:02.311Z,0.72
2024-03-17T00:08:03.017Z,0.72
2024-03-17T00:09:03.103Z,0.72
2024-03-17T00:10:03.143Z,0.68
2024-03-17T00:11:01.642Z,0.66
2024-03-17T00:12:01.760Z,0.67
2024-03-17T00:13:01.873Z,0.66
2024-03-17T00:14:03.677Z,0.67
2024-03-17T00:15:02.141Z,0.69
2024-03-17T00:16:02.224Z,0.66
2024-03-17T00:17:01.287Z,0.66
2024-03-17T00:18:01.413Z,0.72
2024-03-17T00:19:01.541Z,0.73
2024-03-17T00:20:01.625Z,0.72
2024-03-17T00:21:01.742Z,0.72
2024-03-17T00:22:03.502Z,0.72
2024-03-17T00:23:01.924Z,0.65
2024-03-17T00:24:02.016Z,0.61
2024-03-17T00:25:03.910Z,0.57
2024-03-17T00:26:02.244Z,0.53
2024-03-17T00:27:01.341Z,0.54
2024-03-17T00:28:03.109Z,0.53
2024-03-17T00:29:01.526Z,0.51
2024-03-17T00:30:03.362Z,0.5
2024-03-17T00:31:01.772Z,0.51
2024-03-17T00:32:03.505Z,0.52
2024-03-17T00:33:03.642Z,0.53
2024-03-17T00:34:03.760Z,0.52
2024-03-17T00:35:02.185Z,0.53
2024-03-17T00:36:01.320Z,0.55
2024-03-17T00:37:01.399Z,0.54
2024-03-17T00:38:01.508Z,0.51
2024-03-17T00:39:01.617Z,0.54
2024-03-17T00:40:03.431Z,0.54
2024-03-17T00:41:03.470Z,0.55
2024-03-17T00:42:01.923Z,0.55
2024-03-17T00:43:02.061Z,0.52
2024-03-17T00:44:02.147Z,0.51
2024-03-17T00:45:02.242Z,0.5
2024-03-17T00:46:03.066Z,0.49
2024-03-17T00:47:03.073Z,0.5
2024-03-17T00:48:01.556Z,0.49
2024-03-17T00:49:01.685Z,0.49
2024-03-17T00:50:01.774Z,0.48
2024-03-17T00:51:01.863Z,0.49
2024-03-17T00:52:03.640Z,0.5
2024-03-17T00:53:03.700Z,0.52
2024-03-17T00:54:02.209Z,0.54
2024-03-17T00:55:01.288Z,0.55
2024-03-17T00:56:03.083Z,0.57
2024-03-17T00:57:01.504Z,0.58
2024-03-17T00:58:01.617Z,0.59
2024-03-17T00:59:01.695Z,0.6
2024-03-17T01:00:03.466Z,0.59
2024-03-17T01:01:01.909Z,0.57
2024-03-17T01:02:02.051Z,0.58
2024-03-17T01:03:02.177Z,0.57
2024-03-17T01:05:02.970Z,0.5
2024-03-17T01:06:01.495Z,0.43
2024-03-17T01:07:03.223Z,0.4
2024-03-17T01:08:03.319Z,0.37
2024-03-17T01:09:01.814Z,0.33
2024-03-17T01:10:03.589Z,0.3
2024-03-17T01:11:03.605Z,0.29
2024-03-17T01:12:02.073Z,0.27
2024-03-17T01:13:03.877Z,0.24
2024-03-17T01:14:02.904Z,0.27
2024-03-17T01:15:01.384Z,0.27
2024-03-17T01:16:01.534Z,0.29
2024-03-17T01:17:01.588Z,0.33
2024-03-17T01:18:01.705Z,0.39
2024-03-17T01:19:01.804Z,0.38
2024-03-17T01:20:01.893Z,0.38
2024-03-17T01:21:03.707Z,0.35
2024-03-17T01:22:03.794Z,0.33
2024-03-17T01:23:02.217Z,0.3
2024-03-17T01:24:02.939Z,0.29
2024-03-17T01:25:03.153Z,0.25
2024-03-17T01:26:01.545Z,0.23
2024-03-17T01:27:03.336Z,0.23
2024-03-17T01:28:03.434Z,0.21
2024-03-17T01:29:03.496Z,0.22
2024-03-17T01:30:03.600Z,0.23
2024-03-17T01:31:02.132Z,0.23
2024-03-17T01:32:02.167Z,0.21
2024-03-17T01:33:02.909Z,0.21
2024-03-17T01:34:01.388Z,0.23
2024-03-17T01:35:03.106Z,0.27
2024-03-17T01:36:01.603Z,0.33
2024-03-17T01:37:01.691Z,0.38
2024-03-17T01:38:03.417Z,0.43
2024-03-17T01:39:03.533Z,0.47
2024-03-17T01:40:03.681Z,0.5
2024-03-17T01:41:02.121Z,0.51
2024-03-17T01:42:02.193Z,0.52
2024-03-17T01:43:01.268Z,0.53
2024-03-17T01:44:03.036Z,0.55
2024-03-17T01:45:01.567Z,0.58
2024-03-17T01:46:01.630Z,0.57
2024-03-17T01:47:01.684Z,0.59
2024-03-17T01:48:01.824Z,0.6
2024-03-17T01:49:03.640Z,0.6
2024-03-17T01:50:03.811Z,0.59
2024-03-17T01:51:03.785Z,0.62
2024-03-17T01:52:03.922Z,0.62
2024-03-17T01:53:03.000Z,0.61
2024-03-17T01:54:03.070Z,0.64
2024-03-17T01:55:01.562Z,0.65
2024-03-17T01:56:01.661Z,0.66
2024-03-17T01:57:01.785Z,0.66
2024-03-17T01:58:01.913Z,0.68
2024-03-17T01:59:02.003Z,0.69
2024-03-17T02:00:02.095Z,0.72
2024-03-17T02:01:02.241Z,0.71
2024-03-17T02:02:02.947Z,0.72
2024-03-17T02:03:03.029Z,0.72
2024-03-17T02:04:01.528Z,0.72
2024-03-17T02:05:05.665Z,0.69
2024-03-17T02:06:01.703Z,0.67
2024-03-17T02:07:03.466Z,0.66
2024-03-17T02:08:01.914Z,0.67
2024-03-17T02:09:03.660Z,0.68
2024-03-17T02:10:02.213Z,0.69
2024-03-17T02:11:03.924Z,0.72
2024-03-17T02:12:02.964Z,0.72
2024-03-17T02:13:01.441Z,0.71
2024-03-17T02:14:01.546Z,0.72
2024-03-17T02:15:03.308Z,0.73
2024-03-17T02:16:03.403Z,0.76
2024-03-17T02:17:03.517Z,0.73
2024-03-17T02:18:01.964Z,0.72
2024-03-17T02:19:02.079Z,0.72
2024-03-17T02:20:02.207Z,0.73
2024-03-17T02:21:02.965Z,0.78
2024-03-17T02:22:01.415Z,0.77
2024-03-17T02:23:03.138Z,0.76
2024-03-17T02:24:03.249Z,0.75
2024-03-17T02:25:01.723Z,0.74
2024-03-17T02:26:01.838Z,0.73
2024-03-17T02:27:03.589Z,0.74
2024-03-17T02:28:03.686Z,0.73
2024-03-17T02:29:02.115Z,0.73
2024-03-17T02:30:03.888Z,0.75
2024-03-17T02:31:01.367Z,0.72
2024-03-17T02:32:01.445Z,0.72
2024-03-17T02:33:01.534Z,0.73
2024-03-17T02:34:01.685Z,0.73
2024-03-17T02:35:01.755Z,0.73
2024-03-17T02:36:01.867Z,0.72
2024-03-17T02:37:02.002Z,0.72
2024-03-17T02:38:03.797Z,0.72
2024-03-17T02:39:03.870Z,0.69
2024-03-17T02:40:02.950Z,0.67
2024-03-17T02:41:01.442Z,0.62
2024-03-17T02:42:01.533Z,0.58
2024-03-17T02:43:01.623Z,0.59
2024-03-17T02:44:01.764Z,0.61
2024-03-17T02:45:01.837Z,0.58
2024-03-17T02:46:03.607Z,0.59
2024-03-17T02:47:03.676Z,0.57
2024-03-17T02:48:02.152Z,0.55
2024-03-17T02:49:02.904Z,0.54
2024-03-17T02:50:02.975Z,0.51
2024-03-17T02:51:03.118Z,0.5
2024-03-17T02:52:03.246Z,0.53
2024-03-17T02:53:03.307Z,0.52
2024-03-17T02:54:05.827Z,0.5
2024-03-17T02:55:01.890Z,0.52
2024-03-17T02:56:03.633Z,0.53
2024-03-17T02:57:03.745Z,0.49
2024-03-17T02:58:02.197Z,0.47
2024-03-17T02:59:01.290Z,0.48
2024-03-17T03:00:01.418Z,0.44
2024-03-17T03:01:03.222Z,0.44
2024-03-17T03:02:01.609Z,0.43
2024-03-17T03:03:01.766Z,0.4
2024-03-17T03:04:03.508Z,0.39
2024-03-17T03:05:03.589Z,0.42
2024-03-17T03:06:02.062Z,0.43
2024-03-17T03:07:02.178Z,0.43
2024-03-17T03:08:02.305Z,0.39
2024-03-17T03:09:03.018Z,0.37
2024-03-17T03:10:03.125Z,0.39
2024-03-17T03:11:01.545Z,0.39
2024-03-17T03:12:03.376Z,0.39
2024-03-17T03:13:01.773Z,0.39
2024-03-17T03:14:01.922Z,0.42
2024-03-17T03:15:03.624Z,0.42
2024-03-17T03:16:02.088Z,0.39
2024-03-17T03:17:02.206Z,0.38
2024-03-17T03:18:01.298Z,0.36
2024-03-17T03:19:03.068Z,0.3
2024-03-17T03:20:01.518Z,0.22
2024-03-17T03:21:03.220Z,0.2
2024-03-17T03:22:01.703Z,0.16
2024-03-17T03:23:03.487Z,0.1
2024-03-17T03:24:03.554Z,0.04
2024-03-17T03:25:02.017Z,0
2024-03-17T03:26:02.104Z,-0.07
2024-03-17T03:27:03.938Z,-0.11
2024-03-17T03:28:03.001Z,-0.13
2024-03-17T03:29:03.100Z,-0.17
2024-03-17T03:30:01.555Z,-0.2
2024-03-17T03:31:03.298Z,-0.21
2024-03-17T03:32:03.444Z,-0.26
2024-03-17T03:33:06.479Z,-0.27
2024-03-17T03:34:03.657Z,-0.3
2024-03-17T03:35:02.090Z,-0.29
2024-03-17T03:36:02.187Z,-0.28
2024-03-17T03:37:01.297Z,-0.25
2024-03-17T03:38:01.384Z,-0.25
2024-03-17T03:39:01.575Z,-0.25
2024-03-17T03:40:03.312Z,-0.28
2024-03-17T03:41:03.345Z,-0.31
2024-03-17T03:42:01.857Z,-0.34
2024-03-17T03:43:01.930Z,-0.32
2024-03-17T03:44:03.668Z,-0.31
2024-03-17T03:45:02.114Z,-0.32
2024-03-17T03:46:03.914Z,-0.37
2024-03-17T03:47:01.330Z,-0.42
2024-03-17T03:48:01.442Z,-0.43
2024-03-17T03:49:01.528Z,-0.41
2024-03-17T03:50:03.398Z,-0.4
2024-03-17T03:51:01.750Z,-0.41
2024-03-17T03:52:03.774Z,-0.46
2024-03-17T03:53:03.644Z,-0.47
2024-03-17T03:54:03.893Z,-0.5
2024-03-17T03:55:04.088Z,-0.51
2024-03-17T03:56:01.307Z,-0.5
2024-03-17T03:57:01.433Z,-0.52
2024-03-17T03:58:03.169Z,-0.53
2024-03-17T03:59:03.250Z,-0.55
2024-03-17T04:00:03.356Z,-0.56
2024-03-17T04:01:01.835Z,-0.55
2024-03-17T04:02:03.579Z,-0.54
2024-03-17T04:03:02.025Z,-0.54
2024-03-17T04:04:03.798Z,-0.56
2024-03-17T04:05:02.251Z,-0.55
2024-03-17T04:06:01.351Z,-0.5
2024-03-17T04:07:03.091Z,-0.46
2024-03-17T04:08:01.544Z,-0.45
2024-03-17T04:09:03.311Z,-0.43
2024-03-17T04:10:03.389Z,-0.4
2024-03-17T04:11:03.484Z,-0.37
2024-03-17T04:12:01.942Z,-0.38
2024-03-17T04:13:02.100Z,-0.38
2024-03-17T04:14:03.858Z,-0.38
2024-03-17T04:15:01.286Z,-0.4
2024-03-17T04:16:01.391Z,-0.4
2024-03-17T04:17:01.508Z,-0.4
2024-03-17T04:18:01.593Z,-0.39
2024-03-17T04:19:03.386Z,-0.39
2024-03-17T04:20:03.455Z,-0.38
2024-03-17T04:21:03.547Z,-0.32
2024-03-17T04:22:03.640Z,-0.3
2024-03-17T04:23:03.778Z,-0.29
2024-03-17T04:24:03.934Z,-0.3
2024-03-17T04:25:01.320Z,-0.29
2024-03-17T04:26:01.449Z,-0.3
2024-03-17T04:27:03.222Z,-0.28
2024-03-17T04:28:01.644Z,-0.28
2024-03-17T04:29:01.762Z,-0.27
2024-03-17T04:30:01.905Z,-0.28
2024-03-17T04:31:01.994Z,-0.3
2024-03-17T04:32:03.709Z,-0.31
2024-03-17T04:33:03.831Z,-0.3
2024-03-17T04:34:01.282Z,-0.29
2024-03-17T04:35:01.449Z,-0.3
2024-03-17T04:36:03.135Z,-0.31
2024-03-17T04:37:01.604Z,-0.34
2024-03-17T04:38:01.735Z,-0.36
2024-03-17T04:39:01.832Z,-0.38
2024-03-17T04:40:03.673Z,-0.38
2024-03-17T04:41:03.674Z,-0.4
2024-03-17T04:42:02.155Z,-0.41
2024-03-17T04:44:01.355Z,-0.36
2024-03-17T04:45:01.474Z,-0.31
2024-03-17T04:46:03.225Z,-0.29
2024-03-17T04:47:01.669Z,-0.27
2024-03-17T04:48:03.417Z,-0.26
2024-03-17T04:49:03.518Z,-0.26
2024-03-17T04:50:02.012Z,-0.26
2024-03-17T04:51:03.760Z,-0.26
2024-03-17T04:52:03.834Z,-0.22
2024-03-17T04:53:02.946Z,-0.17
2024-03-17T04:54:03.038Z,-0.12
2024-03-17T04:55:01.519Z,-0.12
2024-03-17T04:56:01.656Z,-0.09
2024-03-17T04:57:01.752Z,-0.07
2024-03-17T04:58:01.819Z,-0.03
2024-03-17T04:59:01.920Z,-0.02
2024-03-17T05:00:02.039Z,0
2024-03-17T05:01:02.161Z,0.02
2024-03-17T05:02:02.959Z,0.08
2024-03-17T05:03:01.444Z,0.17
2024-03-17T05:04:03.143Z,0.22
2024-03-17T05:05:01.583Z,0.25
2024-03-17T05:06:01.709Z,0.28
2024-03-17T05:07:01.816Z,0.29
2024-03-17T05:08:03.574Z,0.31
2024-03-17T05:09:02.042Z,0.33
2024-03-17T05:10:05.364Z,0.33
2024-03-17T05:11:03.901Z,0.33
2024-03-17T05:12:01.321Z,0.34
2024-03-17T05:13:01.414Z,0.38
2024-03-17T05:14:03.198Z,0.46
2024-03-17T05:15:03.282Z,0.54
2024-03-17T05:16:01.734Z,0.59
2024-03-17T05:17:01.889Z,0.64
2024-03-17T05:18:03.610Z,0.68
2024-03-17T05:19:03.689Z,0.72
2024-03-17T05:20:02.152Z,0.75
2024-03-17T05:21:01.307Z,0.79
2024-03-17T05:22:03.029Z,0.8
2024-03-17T05:23:03.130Z,0.82
2024-03-17T05:24:03.268Z,0.84
2024-03-17T05:25:01.674Z,0.88
2024-03-17T05:26:01.744Z,0.93
2024-03-17T05:27:03.532Z,0.91
2024-03-17T05:28:03.615Z,0.93
2024-03-17T05:29:02.097Z,0.93
2024-03-17T05:30:02.246Z,0.95
2024-03-17T05:31:01.337Z,0.97
2024-03-17T05:32:01.483Z,1.03
2024-03-17T05:33:03.164Z,1.07
2024-03-17T05:34:03.255Z,1.08
2024-03-17T05:35:03.371Z,1.08
2024-03-17T05:36:01.826Z,1.07
2024-03-17T05:37:01.971Z,1.09
2024-03-17T05:38:03.635Z,1.12
2024-03-17T05:39:02.149Z,1.17
2024-03-17T05:40:01.277Z,1.21
2024-03-17T05:41:01.419Z,1.24
2024-03-17T05:42:03.112Z,1.27
2024-03-17T05:43:03.193Z,1.31
2024-03-17T05:44:01.657Z,1.35
2024-03-17T05:45:01.856Z,1.35
2024-03-17T05:46:03.587Z,1.35
2024-03-17T05:47:01.982Z,1.34
2024-03-17T05:48:02.071Z,1.34
2024-03-17T05:49:02.204Z,1.33
2024-03-17T05:50:03.054Z,1.34
2024-03-17T05:51:03.096Z,1.38
2024-03-17T05:52:03.199Z,1.39
2024-03-17T05:53:01.651Z,1.4
2024-03-17T05:54:01.742Z,1.42
2024-03-17T05:55:01.864Z,1.45
2024-03-17T05:56:01.963Z,1.47
2024-03-17T05:57:02.096Z,1.48
2024-03-17T05:58:03.833Z,1.51
2024-03-17T05:59:01.289Z,1.54
2024-03-17T06:00:01.412Z,1.57
2024-03-17T06:01:01.474Z,1.6
2024-03-17T06:02:03.290Z,1.64
2024-03-17T06:03:01.700Z,1.67
2024-03-17T06:04:06.019Z,1.71
2024-03-17T06:05:01.945Z,1.75
2024-03-17T06:06:02.034Z,1.76
2024-03-17T06:07:03.754Z,1.75
2024-03-17T06:08:02.224Z,1.76
2024-03-17T06:09:01.323Z,1.77
2024-03-17T06:10:03.068Z,1.8
2024-03-17T06:11:03.204Z,1.8
2024-03-17T06:12:03.271Z,1.81
2024-03-17T06:13:01.737Z,1.81
2024-03-17T06:14:01.870Z,1.85
2024-03-17T06:15:01.975Z,1.9
2024-03-17T06:16:02.063Z,1.95
2024-03-17T06:17:02.185Z,2
2024-03-17T06:18:01.317Z,2.05
2024-03-17T06:19:03.005Z,2.08
2024-03-17T06:20:01.537Z,2.1
2024-03-17T06:21:01.594Z,2.11
2024-03-17T06:22:03.320Z,2.11
2024-03-17T06:23:01.832Z,2.12
2024-03-17T06:24:01.959Z,2.16
2024-03-17T06:25:03.640Z,2.23
2024-03-17T06:26:03.773Z,2.27
2024-03-17T06:27:02.210Z,2.3
2024-03-17T06:28:01.325Z,2.3
2024-03-17T06:29:01.463Z,2.32
2024-03-17T06:30:01.565Z,2.34
2024-03-17T06:31:01.648Z,2.35
2024-03-17T06:32:03.384Z,2.38
2024-03-17T06:33:01.879Z,2.39
2024-03-17T06:34:02.010Z,2.41
2024-03-17T06:35:02.093Z,2.42
2024-03-17T06:36:02.161Z,2.45
2024-03-17T06:37:03.009Z,2.47
2024-03-17T06:38:03.061Z,2.51
2024-03-17T06:39:01.538Z,2.54
2024-03-17T06:40:01.609Z,2.57
2024-03-17T06:41:03.363Z,2.61
2024-03-17T06:42:01.833Z,2.66
2024-03-17T06:43:01.926Z,2.68
2024-03-17T06:44:02.082Z,2.69
2024-03-17T06:45:02.144Z,2.71
2024-03-17T06:46:01.291Z,2.73
2024-03-17T06:47:02.960Z,2.74
2024-03-17T06:48:01.474Z,2.76
2024-03-17T06:49:01.606Z,2.79
2024-03-17T06:50:01.709Z,2.84
2024-03-17T06:51:03.437Z,2.86
2024-03-17T06:52:01.900Z,2.88
2024-03-17T06:53:03.642Z,2.89
2024-03-17T06:54:03.736Z,2.91
2024-03-17T06:55:02.228Z,2.95
2024-03-17T06:56:01.322Z,2.97
2024-03-17T06:57:01.445Z,2.99
2024-03-17T06:58:03.158Z,3.02
2024-03-17T06:59:01.646Z,3.06
2024-03-17T07:00:03.397Z,3.09
2024-03-17T07:01:01.865Z,3.11
2024-03-17T07:02:01.976Z,3.13
2024-03-17T07:03:03.697Z,3.15
2024-03-17T07:04:02.215Z,3.18
2024-03-17T07:05:02.907Z,3.25
2024-03-17T07:06:03.012Z,3.25
2024-03-17T07:07:03.105Z,3.28
2024-03-17T07:08:03.224Z,3.3
2024-03-17T07:09:03.373Z,3.33
2024-03-17T07:10:03.420Z,3.36
2024-03-17T07:11:01.915Z,3.39
2024-03-17T07:12:02.043Z,3.43
2024-03-17T07:13:02.116Z,3.46
2024-03-17T07:14:05.840Z,3.47
2024-03-17T07:15:01.301Z,3.47
2024-03-17T07:16:01.449Z,3.48
2024-03-17T07:17:01.541Z,3.48
2024-03-17T07:18:01.640Z,3.53
2024-03-17T07:19:01.778Z,3.55
2024-03-17T07:20:01.903Z,3.57
2024-03-17T07:21:03.640Z,3.57
2024-03-17T07:22:02.104Z,3.6
2024-03-17T07:23:02.196Z,3.63
2024-03-17T07:24:01.274Z,3.64
2024-03-17T07:25:03.077Z,3.65
2024-03-17T07:26:01.555Z,3.68
2024-03-17T07:27:01.624Z,3.69
2024-03-17T07:28:01.703Z,3.74
2024-03-17T07:29:03.477Z,3.77
2024-03-17T07:30:01.971Z,3.8
2024-03-17T07:31:02.037Z,3.84
2024-03-17T07:32:02.132Z,3.87
2024-03-17T07:33:03.885Z,3.88
2024-03-17T07:34:03.010Z,3.89
2024-03-17T07:35:03.084Z,3.92
2024-03-17T07:36:01.542Z,3.94
2024-03-17T07:37:01.701Z,3.99
2024-03-17T07:38:03.386Z,4.04
2024-03-17T07:39:01.866Z,4.1
2024-03-17T07:40:01.974Z,4.15
2024-03-17T07:41:02.121Z,4.18
2024-03-17T07:42:03.805Z,4.19
2024-03-17T07:43:01.286Z,4.19
2024-03-17T07:44:02.981Z,4.22
2024-03-17T07:45:01.526Z,4.28
2024-03-17T07:46:03.241Z,4.31
2024-03-17T07:47:03.435Z,4.33
2024-03-17T07:48:01.873Z,4.36
2024-03-17T07:49:01.968Z,4.39
2024-03-17T07:50:02.115Z,4.43
2024-03-17T07:51:02.160Z,4.44
2024-03-17T07:52:03.921Z,4.45
2024-03-17T07:53:01.555Z,4.47
2024-03-17T07:54:03.089Z,4.49
2024-03-17T07:55:01.593Z,4.53
2024-03-17T07:56:01.667Z,4.58
2024-03-17T07:57:03.425Z,4.61
2024-03-17T07:58:02.117Z,4.63
2024-03-17T07:59:03.840Z,4.68
2024-03-17T08:00:03.746Z,4.71
2024-03-17T08:01:03.811Z,4.78
2024-03-17T08:02:01.324Z,4.81
2024-03-17T08:03:01.403Z,4.86
2024-03-17T08:04:01.487Z,4.89
2024-03-17T08:05:01.692Z,4.9
2024-03-17T08:06:03.342Z,4.93
2024-03-17T08:07:01.852Z,4.98
2024-03-17T08:08:01.958Z,5.05
2024-03-17T08:09:03.693Z,5.11
2024-03-17T08:10:02.171Z,5.13
2024-03-17T08:11:02.235Z,5.16
2024-03-17T08:12:02.949Z,5.21
2024-03-17T08:13:03.142Z,5.33
2024-03-17T08:14:03.215Z,5.36
2024-03-17T08:15:03.393Z,5.38
2024-03-17T08:16:01.808Z,5.41
2024-03-17T08:17:01.872Z,5.42
2024-03-17T08:18:02.012Z,5.43
2024-03-17T08:19:03.790Z,5.5
2024-03-17T08:20:03.890Z,5.55
2024-03-17T08:21:02.923Z,5.63
2024-03-17T08:22:01.399Z,5.66
2024-03-17T08:23:03.143Z,5.7
2024-03-17T08:24:01.611Z,5.72
2024-03-17T08:25:03.398Z,5.8
2024-03-17T08:26:01.843Z,5.86
2024-03-17T08:27:01.940Z,5.96
2024-03-17T08:28:02.038Z,5.96
2024-03-17T08:29:02.156Z,6.05
2024-03-17T08:31:03.033Z,6.21
2024-03-17T08:32:03.106Z,6.34
2024-03-17T08:33:03.230Z,6.35
2024-03-17T08:34:01.686Z,6.36
2024-03-17T08:35:01.771Z,6.37
2024-03-17T08:36:03.508Z,6.44
2024-03-17T08:37:01.957Z,6.56
2024-03-17T08:38:02.099Z,6.58
2024-03-17T08:39:02.199Z,6.53
2024-03-17T08:40:02.920Z,6.51
2024-03-17T08:41:03.046Z,6.49
2024-03-17T08:42:01.487Z,6.5
2024-03-17T08:43:01.609Z,6.54
2024-03-17T08:44:03.323Z,6.54
2024-03-17T08:45:05.170Z,6.54
2024-03-17T08:46:01.908Z,6.51
2024-03-17T08:47:02.045Z,6.49
2024-03-17T08:48:03.751Z,6.45
2024-03-17T08:49:02.231Z,6.44
2024-03-17T08:50:02.982Z,6.46
2024-03-17T08:51:01.457Z,6.51
2024-03-17T08:52:01.572Z,6.58
2024-03-17T08:53:03.341Z,6.66
2024-03-17T08:54:01.721Z,6.73
2024-03-17T08:55:01.857Z,6.74
2024-03-17T08:56:01.951Z,6.72
2024-03-17T08:57:02.124Z,6.72
2024-03-17T08:58:02.218Z,6.71
2024-03-17T08:59:01.293Z,6.73
2024-03-17T09:00:02.975Z,6.85
2024-03-17T09:01:03.172Z,7.03
2024-03-17T09:02:01.646Z,7.22
2024-03-17T09:03:03.399Z,7.42
2024-03-17T09:04:03.485Z,7.54
2024-03-17T09:05:03.579Z,7.57
2024-03-17T09:06:03.681Z,7.69
2024-03-17T09:07:03.782Z,7.85
2024-03-17T09:09:01.385Z,7.93
2024-03-17T09:10:03.112Z,8.05
2024-03-17T09:11:01.587Z,8.14
2024-03-17T09:12:03.333Z,8.23
2024-03-17T09:13:01.773Z,8.33
2024-03-17T09:14:01.918Z,8.45
2024-03-17T09:15:01.996Z,8.48
2024-03-17T09:16:03.745Z,8.61
2024-03-17T09:17:02.223Z,8.7
2024-03-17T09:18:02.933Z,8.78
2024-03-17T09:19:03.031Z,8.83
2024-03-17T09:20:01.550Z,8.85
2024-03-17T09:21:03.303Z,8.77
2024-03-17T09:22:01.766Z,8.79
2024-03-17T09:23:01.841Z,8.8
2024-03-17T09:24:01.928Z,8.81
2024-03-17T09:25:03.681Z,8.87
2024-03-17T09:26:02.154Z,8.95
2024-03-17T09:27:02.279Z,9.05
2024-03-17T09:28:03.001Z,9.22
2024-03-17T09:29:01.445Z,9.33
2024-03-17T09:30:01.614Z,9.31
2024-03-17T09:31:01.675Z,9.22
2024-03-17T09:32:01.787Z,9.12
2024-03-17T09:33:01.926Z,9.04
2024-03-17T09:34:01.985Z,8.97
2024-03-17T09:35:02.108Z,8.98
2024-03-17T09:36:03.854Z,8.95
2024-03-17T09:37:01.291Z,8.94
2024-03-17T09:38:03.069Z,8.86
2024-03-17T09:39:01.518Z,8.77
2024-03-17T09:40:03.228Z,8.68
2024-03-17T09:41:03.369Z,8.66
2024-03-17T09:42:01.835Z,8.65
2024-03-17T09:43:03.540Z,8.66
2024-03-17T09:44:03.698Z,8.65
2024-03-17T09:45:02.137Z,8.63
2024-03-17T09:46:02.208Z,8.53
2024-03-17T09:47:01.350Z,8.48
2024-03-17T09:48:03.108Z,8.46
2024-03-17T09:49:01.542Z,8.42
2024-03-17T09:50:01.686Z,8.44
2024-03-17T09:51:03.419Z,8.45
2024-03-17T09:52:01.904Z,8.44
2024-03-17T09:53:03.603Z,8.39
2024-03-17T09:54:03.711Z,8.37
2024-03-17T09:55:02.219Z,8.39
2024-03-17T09:56:01.279Z,8.41
2024-03-17T09:57:03.042Z,8.5
2024-03-17T09:58:03.146Z,8.62
2024-03-17T09:59:01.611Z,8.79
2024-03-17T10:00:03.378Z,8.95
2024-03-17T10:01:03.463Z,9.11
2024-03-17T10:02:03.578Z,9.17
2024-03-17T10:03:02.040Z,9.21
2024-03-17T10:04:03.746Z,9.19
2024-03-17T10:05:02.239Z,9.27
2024-03-17T10:06:01.371Z,9.37
2024-03-17T10:07:01.462Z,9.49
2024-03-17T10:08:01.573Z,9.52
2024-03-17T10:09:03.298Z,9.55
2024-03-17T10:10:01.788Z,9.55
2024-03-17T10:11:01.878Z,9.5
2024-03-17T10:12:03.640Z,9.56
2024-03-17T10:13:03.730Z,9.6
2024-03-17T10:14:03.842Z,9.61
2024-03-17T10:15:01.286Z,9.56
2024-03-17T10:16:01.388Z,9.57
2024-03-17T10:17:03.189Z,9.56
2024-03-17T10:18:01.578Z,9.6
2024-03-17T10:19:01.710Z,9.53
2024-03-17T10:20:01.872Z,9.51
2024-03-17T10:21:03.548Z,9.53
2024-03-17T10:22:02.037Z,9.63
2024-03-17T10:23:02.175Z,9.74
2024-03-17T10:24:02.223Z,9.79
2024-03-17T10:25:02.972Z,9.88
2024-03-17T10:26:01.453Z,9.95
2024-03-17T10:27:01.597Z,9.97
2024-03-17T10:28:03.344Z,9.93
2024-03-17T10:29:01.733Z,9.86
2024-03-17T10:30:03.491Z,9.8
2024-03-17T10:31:03.651Z,9.71
2024-03-17T10:32:02.097Z,9.63
2024-03-17T10:33:02.171Z,9.54
2024-03-17T10:34:08.773Z,9.42
2024-03-17T10:35:03.025Z,9.3
2024-03-17T10:36:03.198Z,9.26
2024-03-17T10:37:01.621Z,9.21
2024-03-17T10:38:03.392Z,9.14
2024-03-17T10:39:01.903Z,9.07
2024-03-17T10:40:03.554Z,9.07
2024-03-17T10:41:03.710Z,9.09
2024-03-17T10:42:03.814Z,9.2
2024-03-17T10:43:03.902Z,9.31
2024-03-17T10:44:05.924Z,9.36
2024-03-17T10:45:03.068Z,9.35
2024-03-17T10:46:01.548Z,9.33
2024-03-17T10:47:01.650Z,9.29
2024-03-17T10:48:03.434Z,9.34
2024-03-17T10:49:01.873Z,9.48
2024-03-17T10:50:05.847Z,9.66
2024-03-17T10:51:03.769Z,9.78
2024-03-17T10:52:02.192Z,9.83
2024-03-17T10:53:02.940Z,9.82
2024-03-17T10:54:01.380Z,9.82
2024-03-17T10:55:03.146Z,9.77
2024-03-17T10:56:03.696Z,9.8
2024-03-17T10:57:01.788Z,9.88
2024-03-17T10:58:01.836Z,9.98
2024-03-17T10:59:03.552Z,10.04
2024-03-17T11:00:03.677Z,10.05
2024-03-17T11:01:02.124Z,10.06
2024-03-17T11:02:02.257Z,10.08
2024-03-17T11:03:02.970Z,10.11
2024-03-17T11:04:03.074Z,10.12
2024-03-17T11:05:03.196Z,10.07
2024-03-17T11:06:01.676Z,10.05
2024-03-17T11:07:01.774Z,10.09
2024-03-17T11:08:01.877Z,10.07
2024-03-17T11:09:02.037Z,10.04
2024-03-17T11:10:02.114Z,10.06
2024-03-17T11:11:03.832Z,10.14
2024-03-17T11:12:01.291Z,10.23
2024-03-17T11:13:01.390Z,10.19
2024-03-17T11:14:01.485Z,10.2
2024-03-17T11:15:03.269Z,10.22
2024-03-17T11:16:01.724Z,10.15
2024-03-17T11:17:03.468Z,10.13
2024-03-17T11:18:03.549Z,10.05
2024-03-17T11:19:03.704Z,9.97
2024-03-17T11:20:02.121Z,10
2024-03-17T11:21:03.905Z,10.08
2024-03-17T11:22:01.324Z,10.15
2024-03-17T11:23:03.053Z,10.16
2024-03-17T11:24:03.210Z,10.18
2024-03-17T11:25:01.666Z,10.12
2024-03-17T11:26:01.762Z,10.09
2024-03-17T11:27:03.552Z,10.05
2024-03-17T11:28:01.991Z,10.09
2024-03-17T11:29:02.079Z,10.14
2024-03-17T11:30:02.212Z,10.15
2024-03-17T11:31:01.311Z,10.23
2024-03-17T11:32:01.436Z,10.3
2024-03-17T11:33:01.512Z,10.36
2024-03-17T11:34:01.653Z,10.44
2024-03-17T11:35:03.404Z,10.45
2024-03-17T11:36:01.831Z,10.41
2024-03-17T11:37:01.947Z,10.4
2024-03-17T11:38:03.676Z,10.35
2024-03-17T11:39:02.180Z,10.31
2024-03-17T11:40:02.938Z,10.3
2024-03-17T11:41:01.345Z,10.28
2024-03-17T11:42:03.111Z,10.2
2024-03-17T11:43:03.227Z,10.13
2024-03-17T11:44:03.318Z,10.11
2024-03-17T11:45:01.808Z,10.1
2024-03-17T11:46:01.925Z,10.11
2024-03-17T11:47:08.996Z,10.2
2024-03-17T11:48:02.099Z,10.24
2024-03-17T11:49:02.220Z,10.26
2024-03-17T11:50:01.323Z,10.27
2024-03-17T11:51:01.428Z,10.37
2024-03-17T11:52:03.159Z,10.44
2024-03-17T11:53:01.664Z,10.49
2024-03-17T11:54:01.745Z,10.57
2024-03-17T11:55:01.868Z,10.59
2024-03-17T11:56:01.996Z,10.53
2024-03-17T11:57:03.702Z,10.5
2024-03-17T11:58:03.823Z,10.49
2024-03-17T11:59:02.916Z,10.46
2024-03-17T12:00:01.398Z,10.44
2024-03-17T12:01:03.095Z,10.48
2024-03-17T12:02:01.580Z,10.5
2024-03-17T12:03:04.961Z,10.5
2024-03-17T12:04:01.804Z,10.44
2024-03-17T12:05:03.550Z,10.36
2024-03-17T12:06:03.651Z,10.3
2024-03-17T12:07:02.114Z,10.31
2024-03-17T12:08:03.871Z,10.4
2024-03-17T12:09:01.374Z,10.56
2024-03-17T12:10:01.456Z,10.75
2024-03-17T12:11:01.516Z,10.89
2024-03-17T12:12:03.288Z,11.01
2024-03-17T12:13:03.491Z,11.09
2024-03-17T12:14:03.493Z,11.13
2024-03-17T12:15:03.608Z,11.13
2024-03-17T12:16:03.714Z,11.11
2024-03-17T12:17:02.150Z,11.12
2024-03-17T12:18:02.914Z,11.14
2024-03-17T12:19:03.009Z,11.1
2024-03-17T12:20:01.474Z,11.02
2024-03-17T12:21:03.210Z,11.04
2024-03-17T12:22:01.666Z,11.08
2024-03-17T12:23:01.807Z,11.05
2024-03-17T12:24:01.884Z,11.02
2024-03-17T12:25:03.654Z,10.96
2024-03-17T12:26:02.081Z,10.99
2024-03-17T12:27:02.242Z,11.1
2024-03-17T12:28:03.044Z,11.26
2024-03-17T12:29:01.426Z,11.39
2024-03-17T12:30:01.552Z,11.48
2024-03-17T12:31:05.599Z,11.62
2024-03-17T12:32:01.741Z,11.69
2024-03-17T12:33:01.865Z,11.73
2024-03-17T12:34:02.027Z,11.85
2024-03-17T12:35:02.068Z,11.96
2024-03-17T12:36:02.182Z,11.97
2024-03-17T12:37:01.278Z,11.99
2024-03-17T12:38:01.404Z,12.01
2024-03-17T12:39:01.501Z,11.96
2024-03-17T12:40:01.630Z,11.93
2024-03-17T12:41:03.376Z,11.93
2024-03-17T12:42:01.805Z,11.92
2024-03-17T12:43:01.923Z,11.87
2024-03-17T12:44:03.674Z,11.94
2024-03-17T12:45:03.732Z,12.06
2024-03-17T12:46:02.220Z,12.11
2024-03-17T12:47:01.358Z,12.17
2024-03-17T12:48:01.439Z,12.21
2024-03-17T12:49:01.520Z,12.21
2024-03-17T12:50:03.266Z,12.25
2024-03-17T12:51:01.753Z,12.26
2024-03-17T12:52:01.872Z,12.31
2024-03-17T12:53:01.934Z,12.4
2024-03-17T12:54:02.054Z,12.46
2024-03-17T12:55:02.141Z,12.43
2024-03-17T12:56:02.900Z,12.33
2024-03-17T12:57:01.360Z,12.29
2024-03-17T12:58:01.466Z,12.34
2024-03-17T12:59:01.584Z,12.34
2024-03-17T13:00:03.340Z,12.3
2024-03-17T13:01:01.800Z,12.3
2024-03-17T13:02:01.942Z,12.36
2024-03-17T13:03:03.648Z,12.38
2024-03-17T13:04:03.740Z,12.38
2024-03-17T13:05:02.216Z,12.38
2024-03-17T13:06:02.978Z,12.42
2024-03-17T13:07:01.462Z,12.51
2024-03-17T13:08:01.544Z,12.56
2024-03-17T13:09:01.643Z,12.61
2024-03-17T13:10:01.776Z,12.69
2024-03-17T13:11:01.899Z,12.65
2024-03-17T13:12:03.608Z,12.65
2024-03-17T13:13:02.053Z,12.74
2024-03-17T13:14:02.183Z,12.8
2024-03-17T13:15:02.934Z,12.86
2024-03-17T13:16:03.046Z,12.88
2024-03-17T13:17:03.129Z,12.84